createdAt,value
2018-01-20T00:00:51.952Z,5.28
2018-01-20T00:01:52.064Z,5.28
2018-01-20T00:02:52.246Z,5.28
2018-01-20T00:03:51.893Z,5.28
2018-01-20T00:04:52.592Z,5.27
2018-01-20T00:05:52.092Z,5.27
2018-01-20T00:06:52.042Z,5.29
2018-01-20T00:07:52.114Z,5.28
2018-01-20T00:08:52.028Z,5.28
2018-01-20T00:09:52.171Z,5.28
2018-01-20T00:10:51.931Z,5.27
2018-01-20T00:11:52.848Z,5.27
2018-01-20T00:12:52.495Z,5.28
2018-01-20T00:13:51.819Z,5.28
2018-01-20T00:14:53.023Z,5.28
2018-01-20T00:15:52.028Z,5.27
2018-01-20T00:16:52.086Z,5.27
2018-01-20T00:17:52.215Z,5.27
2018-01-20T00:18:52.076Z,5.26
2018-01-20T00:19:52.044Z,5.27
2018-01-20T00:20:51.834Z,5.25
2018-01-20T00:21:53.287Z,5.26
2018-01-20T00:22:52.815Z,5.27
2018-01-20T00:23:54.536Z,5.29
2018-01-20T00:24:51.975Z,5.29
2018-01-20T00:25:51.902Z,5.27
2018-01-20T00:26:51.870Z,5.27
2018-01-20T00:27:53.134Z,5.29
2018-01-20T00:28:52.080Z,5.27
2018-01-20T00:29:53.469Z,5.3
2018-01-20T00:30:52.938Z,5.28
2018-01-20T00:31:52.969Z,5.28
2018-01-20T00:32:52.476Z,5.3
2018-01-20T00:33:52.003Z,5.29
2018-01-20T00:34:52.278Z,5.29
2018-01-20T00:35:52.284Z,5.3
2018-01-20T00:36:52.277Z,5.29
2018-01-20T00:37:53.769Z,5.31
2018-01-20T00:38:52.516Z,5.31
2018-01-20T00:39:52.134Z,5.32
2018-01-20T00:40:52.956Z,5.31
2018-01-20T00:41:52.296Z,5.33
2018-01-20T00:42:51.895Z,5.32
2018-01-20T00:43:51.962Z,5.35
2018-01-20T00:44:52.115Z,5.35
2018-01-20T00:45:51.903Z,5.31
2018-01-20T00:46:52.049Z,5.34
2018-01-20T00:47:51.933Z,5.33
2018-01-20T00:48:52.243Z,5.34
2018-01-20T00:49:52.723Z,5.34
2018-01-20T00:50:51.831Z,5.33
2018-01-20T00:51:52.223Z,5.33
2018-01-20T00:52:53.274Z,5.33
2018-01-20T00:53:52.060Z,5.34
2018-01-20T00:54:52.858Z,5.33
2018-01-20T00:55:52.945Z,5.33
2018-01-20T00:56:53.198Z,5.35
2018-01-20T00:57:51.948Z,5.33
2018-01-20T00:58:53.218Z,5.33
2018-01-20T00:59:52.175Z,5.34
2018-01-20T01:00:53.067Z,5.34
2018-01-20T01:01:52.007Z,5.35
2018-01-20T01:02:52.230Z,5.36
2018-01-20T01:03:52.412Z,5.36
2018-01-20T01:04:52.302Z,5.34
2018-01-20T01:05:52.172Z,5.34
2018-01-20T01:06:52.280Z,5.36
2018-01-20T01:07:52.029Z,5.33
2018-01-20T01:08:52.396Z,5.34
2018-01-20T01:09:52.328Z,5.34
2018-01-20T01:10:53.010Z,5.35
2018-01-20T01:11:52.051Z,5.34
2018-01-20T01:12:52.335Z,5.34
2018-01-20T01:13:52.035Z,5.34
2018-01-20T01:14:52.009Z,5.34
2018-01-20T01:15:52.877Z,5.32
2018-01-20T01:16:52.555Z,5.33
2018-01-20T01:17:52.547Z,5.33
2018-01-20T01:18:52.614Z,5.35
2018-01-20T01:19:52.135Z,5.31
2018-01-20T01:20:52.112Z,5.33
2018-01-20T01:21:53.244Z,5.34
2018-01-20T01:22:51.986Z,5.33
2018-01-20T01:23:51.968Z,5.35
2018-01-20T01:24:52.160Z,5.35
2018-01-20T01:25:52.647Z,5.34
2018-01-20T01:26:51.090Z,5.33
2018-01-20T01:27:51.994Z,5.33
2018-01-20T01:28:51.536Z,5.33
2018-01-20T01:29:51.697Z,5.34
2018-01-20T01:30:51.003Z,5.32
2018-01-20T01:31:51.341Z,5.32
2018-01-20T01:32:51.170Z,5.33
2018-01-20T01:33:52.023Z,5.33
2018-01-20T01:34:51.191Z,5.32
2018-01-20T01:35:51.790Z,5.33
2018-01-20T01:36:51.085Z,5.33
2018-01-20T01:37:52.330Z,5.33
2018-01-20T01:38:52.113Z,5.34
2018-01-20T01:39:51.146Z,5.32
2018-01-20T01:40:51.275Z,5.31
2018-01-20T01:41:51.463Z,5.31
2018-01-20T01:42:52.163Z,5.32
2018-01-20T01:43:51.053Z,5.33
2018-01-20T01:44:51.952Z,5.3
2018-01-20T01:45:50.974Z,5.32
2018-01-20T01:46:51.893Z,5.32
2018-01-20T01:47:51.495Z,5.32
2018-01-20T01:48:51.412Z,5.33
2018-01-20T01:49:51.075Z,5.31
2018-01-20T01:50:51.310Z,5.32
2018-01-20T01:51:52.127Z,5.32
2018-01-20T01:52:52.225Z,5.33
2018-01-20T01:53:51.094Z,5.31
2018-01-20T01:54:51.255Z,5.31
2018-01-20T01:55:51.930Z,5.31
2018-01-20T01:56:51.189Z,5.31
2018-01-20T01:57:51.284Z,5.32
2018-01-20T01:58:51.391Z,5.32
2018-01-20T01:59:51.346Z,5.31
2018-01-20T02:00:51.145Z,5.33
2018-01-20T02:01:51.322Z,5.32
2018-01-20T02:02:51.716Z,5.32
2018-01-20T02:03:51.239Z,5.31
2018-01-20T02:04:52.571Z,5.31
2018-01-20T02:05:51.973Z,5.3
2018-01-20T02:06:51.542Z,5.3
2018-01-20T02:07:51.346Z,5.3
2018-01-20T02:08:51.089Z,5.3
2018-01-20T02:09:52.555Z,5.31
2018-01-20T02:10:51.100Z,5.29
2018-01-20T02:11:51.063Z,5.29
2018-01-20T02:12:51.840Z,5.29
2018-01-20T02:13:51.383Z,5.29
2018-01-20T02:14:51.135Z,5.28
2018-01-20T02:15:51.991Z,5.29
2018-01-20T02:16:51.395Z,5.29
2018-01-20T02:17:51.365Z,5.29
2018-01-20T02:18:51.113Z,5.28
2018-01-20T02:19:51.355Z,5.27
2018-01-20T02:20:52.105Z,5.27
2018-01-20T02:21:51.162Z,5.27
2018-01-20T02:22:52.210Z,5.27
2018-01-20T02:23:51.668Z,5.27
2018-01-20T02:24:51.128Z,5.26
2018-01-20T02:25:51.252Z,5.26
2018-01-20T02:26:51.948Z,5.26
2018-01-20T02:27:52.038Z,5.26
2018-01-20T02:28:51.226Z,5.26
2018-01-20T02:29:53.283Z,5.25
2018-01-20T02:30:51.702Z,5.24
2018-01-20T02:31:51.849Z,5.24
2018-01-20T02:32:52.138Z,5.24
2018-01-20T02:33:51.206Z,5.24
2018-01-20T02:34:51.220Z,5.23
2018-01-20T02:35:51.036Z,5.25
2018-01-20T02:36:51.488Z,5.23
2018-01-20T02:37:51.426Z,5.24
2018-01-20T02:38:52.406Z,5.24
2018-01-20T02:39:51.466Z,5.24
2018-01-20T02:40:51.309Z,5.21
2018-01-20T02:41:51.397Z,5.21
2018-01-20T02:42:51.573Z,5.22
2018-01-20T02:43:51.452Z,5.23
2018-01-20T02:44:52.054Z,5.22
2018-01-20T02:45:51.162Z,5.22
2018-01-20T02:46:51.223Z,5.22
2018-01-20T02:47:51.156Z,5.22
2018-01-20T02:48:51.277Z,5.21
2018-01-20T02:49:51.148Z,5.21
2018-01-20T02:50:51.992Z,5.23
2018-01-20T02:51:51.232Z,5.23
2018-01-20T02:52:51.152Z,5.24
2018-01-20T02:53:52.576Z,5.24
2018-01-20T02:54:52.136Z,5.25
2018-01-20T02:55:53.005Z,5.25
2018-01-20T02:56:51.145Z,5.26
2018-01-20T02:57:51.349Z,5.26
2018-01-20T02:58:52.948Z,5.28
2018-01-20T02:59:51.202Z,5.28
2018-01-20T03:00:51.990Z,5.28
2018-01-20T03:01:51.420Z,5.27
2018-01-20T03:02:51.384Z,5.25
2018-01-20T03:03:51.161Z,5.24
2018-01-20T03:04:51.490Z,5.2
2018-01-20T03:05:52.282Z,5.18
2018-01-20T03:06:51.208Z,5.16
2018-01-20T03:07:51.129Z,5.16
2018-01-20T03:08:51.375Z,5.17
2018-01-20T03:09:51.764Z,5.17
2018-01-20T03:10:51.143Z,5.12
2018-01-20T03:11:52.486Z,5.13
2018-01-20T03:12:51.545Z,5.12
2018-01-20T03:13:51.270Z,5.16
2018-01-20T03:14:51.341Z,5.14
2018-01-20T03:15:52.736Z,5.14
2018-01-20T03:16:51.825Z,5.14
2018-01-20T03:17:51.097Z,5.17
2018-01-20T03:18:51.083Z,5.17
2018-01-20T03:19:52.284Z,5.17
2018-01-20T03:20:51.215Z,5.17
2018-01-20T03:21:51.776Z,5.19
2018-01-20T03:22:51.175Z,5.17
2018-01-20T03:23:51.073Z,5.18
2018-01-20T03:24:52.174Z,5.19
2018-01-20T03:25:51.554Z,5.21
2018-01-20T03:26:51.957Z,5.19
2018-01-20T03:27:51.256Z,5.21
2018-01-20T03:28:51.565Z,5.2
2018-01-20T03:29:51.679Z,5.21
2018-01-20T03:30:51.366Z,5.21
2018-01-20T03:31:51.256Z,5.21
2018-01-20T03:32:51.440Z,5.2
2018-01-20T03:33:51.860Z,5.22
2018-01-20T03:34:53.219Z,5.22
2018-01-20T03:35:52.638Z,5.22
2018-01-20T03:36:51.996Z,5.22
2018-01-20T03:37:51.321Z,5.24
2018-01-20T03:38:52.335Z,5.23
2018-01-20T03:39:51.318Z,5.24
2018-01-20T03:40:51.870Z,5.26
2018-01-20T03:41:51.222Z,5.25
2018-01-20T03:42:51.270Z,5.28
2018-01-20T03:43:51.479Z,5.26
2018-01-20T03:44:52.493Z,5.28
2018-01-20T03:45:51.458Z,5.28
2018-01-20T03:46:51.224Z,5.26
2018-01-20T03:47:51.165Z,5.27
2018-01-20T03:48:51.274Z,5.26
2018-01-20T03:49:52.109Z,5.26
2018-01-20T03:50:51.177Z,5.27
2018-01-20T03:51:52.001Z,5.27
2018-01-20T03:52:52.071Z,5.3
2018-01-20T03:53:52.221Z,5.3
2018-01-20T03:54:51.813Z,5.3
2018-01-20T03:55:52.622Z,5.29
2018-01-20T03:56:52.321Z,5.3
2018-01-20T03:57:51.480Z,5.29
2018-01-20T03:58:52.223Z,5.3
2018-01-20T03:59:51.411Z,5.3
2018-01-20T04:00:51.530Z,5.29
2018-01-20T04:01:52.462Z,5.28
2018-01-20T04:02:51.477Z,5.31
2018-01-20T04:03:51.507Z,5.28
2018-01-20T04:04:51.639Z,5.29
2018-01-20T04:05:51.383Z,5.3
2018-01-20T04:06:51.250Z,5.3
2018-01-20T04:07:52.114Z,5.3
2018-01-20T04:08:51.129Z,5.28
2018-01-20T04:09:51.274Z,5.3
2018-01-20T04:10:51.425Z,5.28
2018-01-20T04:11:52.418Z,5.29
2018-01-20T04:12:52.155Z,5.3
2018-01-20T04:13:51.609Z,5.3
2018-01-20T04:14:52.493Z,5.3
2018-01-20T04:15:51.704Z,5.27
2018-01-20T04:16:51.436Z,5.3
2018-01-20T04:17:51.158Z,5.28
2018-01-20T04:18:51.189Z,5.29
2018-01-20T04:19:51.264Z,5.28
2018-01-20T04:20:51.554Z,5.29
2018-01-20T04:21:51.518Z,5.3
2018-01-20T04:22:52.251Z,5.3
2018-01-20T04:23:52.491Z,5.29
2018-01-20T04:24:51.215Z,5.3
2018-01-20T04:25:51.441Z,5.3
2018-01-20T04:26:51.460Z,5.31
2018-01-20T04:27:52.660Z,5.31
2018-01-20T04:28:52.145Z,5.3
2018-01-20T04:29:51.591Z,5.3
2018-01-20T04:30:51.928Z,5.32
2018-01-20T04:31:52.127Z,5.32
2018-01-20T04:32:51.276Z,5.32
2018-01-20T04:33:52.334Z,5.32
2018-01-20T04:34:51.415Z,5.33
2018-01-20T04:35:51.397Z,5.31
2018-01-20T04:36:52.236Z,5.32
2018-01-20T04:37:51.243Z,5.33
2018-01-20T04:38:51.466Z,5.31
2018-01-20T04:39:51.245Z,5.34
2018-01-20T04:40:51.377Z,5.33
2018-01-20T04:41:51.463Z,5.33
2018-01-20T04:42:52.765Z,5.33
2018-01-20T04:43:53.839Z,5.31
2018-01-20T04:44:51.610Z,5.33
2018-01-20T04:45:51.910Z,5.34
2018-01-20T04:46:51.371Z,5.33
2018-01-20T04:47:51.518Z,5.33
2018-01-20T04:48:51.951Z,5.35
2018-01-20T04:49:51.619Z,5.34
2018-01-20T04:50:51.383Z,5.33
2018-01-20T04:51:51.238Z,5.32
2018-01-20T04:52:51.325Z,5.33
2018-01-20T04:53:51.434Z,5.34
2018-01-20T04:54:51.224Z,5.35
2018-01-20T04:55:52.265Z,5.33
2018-01-20T04:56:51.797Z,5.34
2018-01-20T04:57:51.473Z,5.35
2018-01-20T04:58:51.634Z,5.33
2018-01-20T04:59:51.642Z,5.33
2018-01-20T05:00:51.839Z,5.34
2018-01-20T05:01:51.356Z,5.35
2018-01-20T05:02:53.122Z,5.34
2018-01-20T05:03:53.608Z,5.33
2018-01-20T05:04:51.628Z,5.33
2018-01-20T05:05:51.309Z,5.34
2018-01-20T05:06:51.616Z,5.34
2018-01-20T05:07:52.296Z,5.34
2018-01-20T05:08:51.260Z,5.34
2018-01-20T05:09:51.769Z,5.34
2018-01-20T05:10:52.460Z,5.35
2018-01-20T05:11:51.405Z,5.35
2018-01-20T05:12:52.052Z,5.32
2018-01-20T05:13:52.291Z,5.33
2018-01-20T05:14:51.203Z,5.33
2018-01-20T05:15:52.356Z,5.32
2018-01-20T05:16:51.943Z,5.32
2018-01-20T05:17:51.409Z,5.32
2018-01-20T05:18:52.193Z,5.32
2018-01-20T05:19:51.327Z,5.32
2018-01-20T05:20:51.461Z,5.3
2018-01-20T05:21:52.009Z,5.32
2018-01-20T05:22:52.401Z,5.31
2018-01-20T05:23:51.558Z,5.31
2018-01-20T05:24:51.972Z,5.3
2018-01-20T05:25:51.870Z,5.3
2018-01-20T05:26:51.791Z,5.3
2018-01-20T05:27:51.478Z,5.32
2018-01-20T05:28:51.736Z,5.31
2018-01-20T05:29:51.417Z,5.33
2018-01-20T05:30:51.449Z,5.33
2018-01-20T05:31:52.655Z,5.36
2018-01-20T05:32:51.466Z,5.34
2018-01-20T05:33:52.462Z,5.34
2018-01-20T05:34:52.145Z,5.35
2018-01-20T05:35:52.450Z,5.35
2018-01-20T05:36:52.140Z,5.36
2018-01-20T05:37:51.444Z,5.35
2018-01-20T05:38:52.254Z,5.37
2018-01-20T05:39:51.674Z,5.37
2018-01-20T05:40:51.659Z,5.38
2018-01-20T05:41:51.794Z,5.37
2018-01-20T05:42:51.606Z,5.37
2018-01-20T05:43:51.928Z,5.38
2018-01-20T05:44:51.529Z,5.38
2018-01-20T05:45:52.457Z,5.38
2018-01-20T05:46:52.064Z,5.4
2018-01-20T05:47:53.930Z,5.4
2018-01-20T05:48:52.940Z,5.4
2018-01-20T05:49:51.467Z,5.4
2018-01-20T05:50:52.831Z,5.4
2018-01-20T05:51:51.706Z,5.4
2018-01-20T05:52:52.241Z,5.4
2018-01-20T05:53:52.490Z,5.39
2018-01-20T05:54:52.103Z,5.4
2018-01-20T05:55:51.464Z,5.41
2018-01-20T05:56:52.290Z,5.41
2018-01-20T05:57:52.898Z,5.4
2018-01-20T05:58:51.523Z,5.4
2018-01-20T05:59:51.577Z,5.39
2018-01-20T06:00:51.638Z,5.39
2018-01-20T06:01:51.465Z,5.39
2018-01-20T06:02:51.404Z,5.38
2018-01-20T06:03:51.433Z,5.38
2018-01-20T06:04:51.518Z,5.39
2018-01-20T06:05:51.448Z,5.39
2018-01-20T06:06:51.401Z,5.39
2018-01-20T06:07:51.620Z,5.41
2018-01-20T06:08:52.338Z,5.39
2018-01-20T06:09:52.858Z,5.41
2018-01-20T06:10:51.752Z,5.4
2018-01-20T06:11:51.522Z,5.41
2018-01-20T06:12:52.076Z,5.41
2018-01-20T06:13:51.324Z,5.41
2018-01-20T06:14:51.699Z,5.41
2018-01-20T06:15:51.344Z,5.41
2018-01-20T06:16:52.228Z,5.42
2018-01-20T06:17:51.650Z,5.41
2018-01-20T06:18:52.958Z,5.42
2018-01-20T06:19:54.050Z,5.42
2018-01-20T06:20:53.566Z,5.44
2018-01-20T06:21:53.827Z,5.44
2018-01-20T06:22:51.758Z,5.44
2018-01-20T06:23:51.556Z,5.44
2018-01-20T06:24:53.220Z,5.44
2018-01-20T06:25:51.822Z,5.45
2018-01-20T06:26:52.279Z,5.46
2018-01-20T06:27:52.899Z,5.46
2018-01-20T06:28:52.605Z,5.46
2018-01-20T06:29:52.519Z,5.44
2018-01-20T06:30:51.538Z,5.45
2018-01-20T06:31:51.636Z,5.43
2018-01-20T06:32:51.562Z,5.44
2018-01-20T06:33:51.585Z,5.44
2018-01-20T06:34:52.332Z,5.45
2018-01-20T06:35:52.421Z,5.46
2018-01-20T06:36:51.456Z,5.46
2018-01-20T06:37:52.376Z,5.48
2018-01-20T06:38:52.190Z,5.49
2018-01-20T06:39:51.554Z,5.48
2018-01-20T06:40:51.535Z,5.48
2018-01-20T06:41:51.618Z,5.47
2018-01-20T06:42:51.576Z,5.48
2018-01-20T06:43:51.768Z,5.48
2018-01-20T06:44:51.806Z,5.49
2018-01-20T06:45:52.665Z,5.5
2018-01-20T06:46:51.549Z,5.46
2018-01-20T06:47:52.388Z,5.48
2018-01-20T06:48:52.167Z,5.48
2018-01-20T06:49:51.580Z,5.47
2018-01-20T06:50:51.989Z,5.47
2018-01-20T06:51:51.553Z,5.48
2018-01-20T06:52:52.525Z,5.47
2018-01-20T06:53:51.622Z,5.47
2018-01-20T06:54:51.603Z,5.48
2018-01-20T06:55:51.773Z,5.48
2018-01-20T06:56:52.548Z,5.48
2018-01-20T06:57:51.575Z,5.49
2018-01-20T06:58:51.899Z,5.47
2018-01-20T06:59:52.397Z,5.47
2018-01-20T07:00:51.819Z,5.48
2018-01-20T07:01:51.501Z,5.48
2018-01-20T07:02:53.561Z,5.46
2018-01-20T07:03:51.990Z,5.47
2018-01-20T07:04:52.090Z,5.47
2018-01-20T07:05:51.535Z,5.44
2018-01-20T07:06:52.579Z,5.46
2018-01-20T07:07:51.966Z,5.46
2018-01-20T07:08:51.830Z,5.47
2018-01-20T07:09:51.497Z,5.46
2018-01-20T07:10:51.597Z,5.46
2018-01-20T07:11:51.565Z,5.44
2018-01-20T07:12:52.116Z,5.45
2018-01-20T07:13:51.763Z,5.45
2018-01-20T07:14:40.513Z,5.46
2018-01-20T07:15:38.527Z,5.43
2018-01-20T07:17:22.987Z,5.47
2018-01-20T07:18:22.866Z,5.46
2018-01-20T07:19:22.688Z,5.45
2018-01-20T07:20:25.086Z,5.45
2018-01-20T07:21:09.856Z,5.46
2018-01-20T07:22:10.716Z,5.45
2018-01-20T07:23:09.666Z,5.45
2018-01-20T07:24:09.810Z,5.44
2018-01-20T07:25:10.517Z,5.45
2018-01-20T07:26:11.954Z,5.45
2018-01-20T07:27:09.988Z,5.45
2018-01-20T07:28:09.654Z,5.44
2018-01-20T07:29:09.823Z,5.44
2018-01-20T07:30:09.734Z,5.47
2018-01-20T07:31:09.859Z,5.43
2018-01-20T07:32:11.184Z,5.44
2018-01-20T07:33:09.733Z,5.46
2018-01-20T07:34:09.766Z,5.46
2018-01-20T07:35:10.061Z,5.45
2018-01-20T07:36:10.114Z,5.46
2018-01-20T07:37:10.839Z,5.45
2018-01-20T07:38:10.127Z,5.46
2018-01-20T07:39:09.712Z,5.46
2018-01-20T07:40:09.883Z,5.46
2018-01-20T07:41:10.010Z,5.46
2018-01-20T07:42:10.159Z,5.46
2018-01-20T07:43:10.380Z,5.47
2018-01-20T07:44:10.960Z,5.47
2018-01-20T07:45:10.364Z,5.47
2018-01-20T07:46:10.597Z,5.46
2018-01-20T07:47:10.738Z,5.47
2018-01-20T07:48:10.293Z,5.48
2018-01-20T07:49:10.481Z,5.49
2018-01-20T07:50:10.029Z,5.47
2018-01-20T07:51:10.659Z,5.46
2018-01-20T07:52:11.216Z,5.48
2018-01-20T07:53:32.536Z,5.5
2018-01-20T07:54:10.102Z,5.47
2018-01-20T07:55:11.302Z,5.48
2018-01-20T07:56:10.475Z,5.48
2018-01-20T07:57:10.046Z,5.48
2018-01-20T07:58:29.907Z,5.48
2018-01-20T07:59:22.142Z,5.48
2018-01-20T08:00:21.312Z,5.48
2018-01-20T08:01:21.188Z,5.49
2018-01-20T08:02:21.120Z,5.48
2018-01-20T08:03:21.139Z,5.48
2018-01-20T08:04:20.971Z,5.49
2018-01-20T08:05:21.145Z,5.48
2018-01-20T08:06:20.977Z,5.49
2018-01-20T08:07:20.931Z,5.49
2018-01-20T08:08:22.220Z,5.5
2018-01-20T08:09:21.828Z,5.49
2018-01-20T08:10:22.002Z,5.48
2018-01-20T08:11:21.033Z,5.48
2018-01-20T08:12:21.704Z,5.49
2018-01-20T08:13:21.037Z,5.51
2018-01-20T08:14:21.096Z,5.51
2018-01-20T08:15:22.435Z,5.51
2018-01-20T08:16:21.051Z,5.5
2018-01-20T08:17:21.247Z,5.51
2018-01-20T08:18:22.920Z,5.51
2018-01-20T08:19:21.186Z,5.52
2018-01-20T08:20:21.266Z,5.52
2018-01-20T08:21:21.940Z,5.52
2018-01-20T08:23:09.895Z,5.52
2018-01-20T08:24:08.278Z,5.52
2018-01-20T08:25:07.614Z,5.52
2018-01-20T08:26:07.536Z,5.53
2018-01-20T08:27:08.070Z,5.54
2018-01-20T08:28:07.941Z,5.56
2018-01-20T08:29:08.539Z,5.54
2018-01-20T08:30:08.466Z,5.54
2018-01-20T08:31:08.860Z,5.55
2018-01-20T08:32:08.723Z,5.57
2018-01-20T08:33:07.621Z,5.57
2018-01-20T08:34:07.978Z,5.57
2018-01-20T08:35:07.617Z,5.54
2018-01-20T08:36:09.154Z,5.55
2018-01-20T08:37:11.619Z,5.53
2018-01-20T08:38:08.009Z,5.56
2018-01-20T08:39:08.690Z,5.55
2018-01-20T08:40:08.269Z,5.55
2018-01-20T08:43:11.832Z,5.56
2018-01-20T08:44:07.809Z,5.57
2018-01-20T08:45:07.677Z,5.55
2018-01-20T08:46:08.703Z,5.55
2018-01-20T08:47:07.756Z,5.58
2018-01-20T08:48:08.459Z,5.59
2018-01-20T08:49:07.538Z,5.6
2018-01-20T08:50:07.473Z,5.57
2018-01-20T08:51:08.811Z,5.58
2018-01-20T08:52:07.725Z,5.59
2018-01-20T08:53:08.033Z,5.58
2018-01-20T08:54:08.811Z,5.59
2018-01-20T08:55:08.516Z,5.63
2018-01-20T08:56:10.339Z,5.62
2018-01-20T08:57:09.537Z,5.63
2018-01-20T08:58:06.340Z,5.63
2018-01-20T08:59:06.009Z,5.63
2018-01-20T09:00:13.852Z,5.62
2018-01-20T09:01:07.788Z,5.62
2018-01-20T09:02:05.858Z,5.63
2018-01-20T09:03:05.565Z,5.66
2018-01-20T09:04:06.171Z,5.66
2018-01-20T09:05:07.421Z,5.66
2018-01-20T09:06:06.897Z,5.68
2018-01-20T09:07:06.589Z,5.64
2018-01-20T09:08:08.515Z,5.66
2018-01-20T09:09:08.232Z,5.63
2018-01-20T09:10:06.863Z,5.64
2018-01-20T09:11:07.557Z,5.59
2018-01-20T09:12:08.272Z,5.59
2018-01-20T09:13:08.253Z,5.6
2018-01-20T09:14:08.330Z,5.64
2018-01-20T09:15:07.576Z,5.64
2018-01-20T09:16:05.973Z,5.64
2018-01-20T09:17:08.500Z,5.64
2018-01-20T09:18:07.902Z,5.64
2018-01-20T09:19:08.046Z,5.63
2018-01-20T09:20:06.858Z,5.63
2018-01-20T09:21:07.254Z,5.64
2018-01-20T09:22:08.269Z,5.63
2018-01-20T09:23:07.081Z,5.63
2018-01-20T09:24:06.276Z,5.64
2018-01-20T09:25:06.139Z,5.61
2018-01-20T09:26:07.646Z,5.62
2018-01-20T09:27:08.630Z,5.65
2018-01-20T09:28:55.720Z,5.68
2018-01-20T09:29:00.641Z,5.68
2018-01-20T09:29:06.281Z,5.68
2018-01-20T09:29:13.532Z,5.69
2018-01-20T09:29:19.580Z,5.68
2018-01-20T09:29:26.110Z,5.68
2018-01-20T09:29:30.745Z,5.67
2018-01-20T09:29:36.342Z,5.67
2018-01-20T09:29:43.550Z,5.68
2018-01-20T09:29:49.184Z,5.67
2018-01-20T09:29:54.124Z,5.66
2018-01-20T09:30:00.027Z,5.66
2018-01-20T09:30:05.777Z,5.68
2018-01-20T09:30:14.969Z,5.7
2018-01-20T09:30:22.574Z,5.69
2018-01-20T09:30:28.616Z,5.69
2018-01-20T09:30:34.916Z,5.69
2018-01-20T09:30:46.296Z,5.68
2018-01-20T09:31:03.495Z,5.69
2018-01-20T09:31:37.897Z,5.69
2018-01-20T09:31:49.980Z,5.7
2018-01-20T09:32:01.136Z,5.69
2018-01-20T09:32:10.421Z,5.69
2018-01-20T09:32:17.440Z,5.67
2018-01-20T09:32:25.019Z,5.69
2018-01-20T09:32:30.778Z,5.68
2018-01-20T09:32:35.622Z,5.67
2018-01-20T09:32:40.540Z,5.66
2018-01-20T09:32:47.400Z,5.64
2018-01-20T09:32:52.527Z,5.65
2018-01-20T09:32:59.002Z,5.66
2018-01-20T09:33:05.268Z,5.68
2018-01-20T09:33:10.692Z,5.66
2018-01-20T09:33:18.357Z,5.66
2018-01-20T09:33:23.756Z,5.65
2018-01-20T09:33:29.507Z,5.63
2018-01-20T09:33:34.712Z,5.64
2018-01-20T09:33:40.283Z,5.62
2018-01-20T09:33:47.558Z,5.64
2018-01-20T09:33:55.131Z,5.64
2018-01-20T09:34:01.064Z,5.64
2018-01-20T09:34:07.810Z,5.64
2018-01-20T09:34:13.679Z,5.63
2018-01-20T09:34:18.680Z,5.63
2018-01-20T09:34:23.770Z,5.63
2018-01-20T09:34:30.822Z,5.64
2018-01-20T09:34:35.980Z,5.64
2018-01-20T09:34:40.753Z,5.65
2018-01-20T09:34:54.771Z,5.65
2018-01-20T09:35:15.595Z,5.66
2018-01-20T09:35:21.358Z,5.66
2018-01-20T09:35:27.454Z,5.67
2018-01-20T09:35:34.707Z,5.66
2018-01-20T09:35:40.429Z,5.66
2018-01-20T09:35:48.575Z,5.66
2018-01-20T09:35:57.559Z,5.66
2018-01-20T09:36:04.059Z,5.68
2018-01-20T09:36:10.041Z,5.67
2018-01-20T09:37:06.224Z,5.71
2018-01-20T09:38:05.972Z,5.69
2018-01-20T09:39:09.947Z,5.7
2018-01-20T09:40:06.364Z,5.7
2018-01-20T09:41:06.056Z,5.69
2018-01-20T09:42:06.422Z,5.68
2018-01-20T09:43:06.053Z,5.69
2018-01-20T09:44:06.048Z,5.68
2018-01-20T09:45:05.974Z,5.69
2018-01-20T09:46:06.140Z,5.71
2018-01-20T09:47:06.184Z,5.73
2018-01-20T09:48:05.960Z,5.72
2018-01-20T09:49:06.058Z,5.72
2018-01-20T09:50:06.053Z,5.74
2018-01-20T09:51:06.081Z,5.71
2018-01-20T09:52:06.067Z,5.74
2018-01-20T09:53:06.035Z,5.75
2018-01-20T09:54:06.040Z,5.76
2018-01-20T09:55:06.294Z,5.75
2018-01-20T09:56:06.337Z,5.77
2018-01-20T09:57:06.396Z,5.78
2018-01-20T09:58:06.348Z,5.78
2018-01-20T09:59:06.319Z,5.78
2018-01-20T10:00:05.993Z,5.75
2018-01-20T10:01:06.026Z,5.76
2018-01-20T10:02:07.203Z,5.75
2018-01-20T10:03:06.287Z,5.77
2018-01-20T10:04:06.071Z,5.74
2018-01-20T10:05:10.914Z,5.76
2018-01-20T10:06:07.256Z,5.77
2018-01-20T10:07:06.154Z,5.72
2018-01-20T10:08:06.357Z,5.71
2018-01-20T10:09:05.078Z,5.69
2018-01-20T10:10:08.158Z,5.73
2018-01-20T10:11:05.191Z,5.7
2018-01-20T10:12:16.956Z,5.71
2018-01-20T10:13:05.233Z,5.72
2018-01-20T10:14:04.990Z,5.71
2018-01-20T10:15:05.106Z,5.73
2018-01-20T10:16:05.250Z,5.66
2018-01-20T10:17:05.066Z,5.66
2018-01-20T10:18:05.106Z,5.68
2018-01-20T10:19:05.229Z,5.69
2018-01-20T10:20:05.133Z,5.7
2018-01-20T10:21:05.289Z,5.69
2018-01-20T10:22:05.089Z,5.67
2018-01-20T10:23:05.154Z,5.69
2018-01-20T10:24:05.309Z,5.71
2018-01-20T10:25:05.147Z,5.71
2018-01-20T10:26:05.071Z,5.72
2018-01-20T10:27:05.079Z,5.73
2018-01-20T10:28:05.055Z,5.74
2018-01-20T10:29:05.382Z,5.7
2018-01-20T10:30:05.041Z,5.68
2018-01-20T10:31:05.194Z,5.68
2018-01-20T10:32:05.150Z,5.69
2018-01-20T10:33:05.333Z,5.68
2018-01-20T10:34:05.281Z,5.7
2018-01-20T10:35:05.205Z,5.69
2018-01-20T10:36:05.077Z,5.69
2018-01-20T10:37:05.273Z,5.7
2018-01-20T10:38:06.768Z,5.7
2018-01-20T10:39:05.992Z,5.69
2018-01-20T10:40:05.172Z,5.7
2018-01-20T10:41:05.099Z,5.69
2018-01-20T10:42:06.032Z,5.71
2018-01-20T10:43:05.201Z,5.7
2018-01-20T10:44:05.181Z,5.72
2018-01-20T10:45:05.099Z,5.72
2018-01-20T10:46:05.356Z,5.74
2018-01-20T10:47:05.159Z,5.73
2018-01-20T10:48:05.276Z,5.7
2018-01-20T10:49:05.353Z,5.71
2018-01-20T10:50:05.133Z,5.73
2018-01-20T10:51:05.184Z,5.73
2018-01-20T10:52:05.213Z,5.72
2018-01-20T10:53:05.166Z,5.74
2018-01-20T10:54:05.164Z,5.74
2018-01-20T10:55:05.288Z,5.75
2018-01-20T10:56:05.200Z,5.73
2018-01-20T10:57:05.360Z,5.77
2018-01-20T10:58:05.335Z,5.78
2018-01-20T10:59:05.144Z,5.77
2018-01-20T11:00:05.881Z,5.77
2018-01-20T11:01:05.297Z,5.77
2018-01-20T11:02:05.147Z,5.74
2018-01-20T11:03:05.292Z,5.8
2018-01-20T11:04:05.450Z,5.78
2018-01-20T11:05:05.458Z,5.79
2018-01-20T11:06:05.039Z,5.78
2018-01-20T11:07:05.078Z,5.8
2018-01-20T11:08:05.189Z,5.8
2018-01-20T11:09:05.339Z,5.82
2018-01-20T11:10:05.325Z,5.82
2018-01-20T11:11:05.266Z,5.84
2018-01-20T11:12:05.281Z,5.82
2018-01-20T11:13:05.226Z,5.81
2018-01-20T11:14:05.270Z,5.81
2018-01-20T11:15:05.309Z,5.77
2018-01-20T11:16:05.532Z,5.81
2018-01-20T11:17:05.230Z,5.83
2018-01-20T11:18:05.262Z,5.8
2018-01-20T11:19:05.365Z,5.8
2018-01-20T11:20:05.358Z,5.79
2018-01-20T11:21:05.490Z,5.82
2018-01-20T11:22:05.302Z,5.85
2018-01-20T11:23:05.375Z,5.88
2018-01-20T11:24:05.483Z,5.85
2018-01-20T11:25:05.267Z,5.84
2018-01-20T11:26:05.293Z,5.87
2018-01-20T11:27:05.389Z,5.85
2018-01-20T11:28:05.512Z,5.86
2018-01-20T11:29:05.420Z,5.86
2018-01-20T11:30:05.358Z,5.89
2018-01-20T11:31:05.505Z,5.88
2018-01-20T11:32:05.331Z,5.87
2018-01-20T11:33:05.357Z,5.91
2018-01-20T11:34:05.387Z,5.89
2018-01-20T11:35:05.297Z,5.91
2018-01-20T11:36:05.698Z,5.9
2018-01-20T11:37:05.380Z,5.89
2018-01-20T11:38:05.331Z,5.9
2018-01-20T11:39:05.497Z,5.9
2018-01-20T11:40:05.311Z,5.87
2018-01-20T11:41:05.510Z,5.87
2018-01-20T11:42:05.455Z,5.88
2018-01-20T11:43:05.541Z,5.88
2018-01-20T11:44:07.305Z,5.93
2018-01-20T11:45:07.109Z,5.9
2018-01-20T11:46:05.511Z,5.91
2018-01-20T11:47:05.650Z,5.93
2018-01-20T11:48:05.557Z,5.9
2018-01-20T11:49:05.747Z,5.92
2018-01-20T11:50:05.548Z,5.91
2018-01-20T11:51:06.022Z,5.92
2018-01-20T11:52:05.851Z,5.94
2018-01-20T11:53:05.338Z,5.93
2018-01-20T11:54:05.510Z,5.95
2018-01-20T11:55:05.380Z,5.95
2018-01-20T11:56:05.743Z,5.96
2018-01-20T11:57:05.736Z,5.95
2018-01-20T11:58:06.411Z,5.93
2018-01-20T11:59:05.571Z,5.98
2018-01-20T12:00:05.415Z,5.93
2018-01-20T12:01:06.300Z,5.95
2018-01-20T12:02:06.556Z,5.94
2018-01-20T12:03:05.245Z,5.92
2018-01-20T12:04:05.249Z,5.94
2018-01-20T12:05:05.365Z,5.92
2018-01-20T12:06:05.444Z,5.96
2018-01-20T12:07:05.448Z,5.96
2018-01-20T12:08:05.580Z,5.96
2018-01-20T12:09:05.283Z,5.95
2018-01-20T12:10:05.238Z,5.95
2018-01-20T12:11:05.532Z,5.96
2018-01-20T12:12:05.293Z,5.98
2018-01-20T12:13:05.391Z,5.96
2018-01-20T12:14:05.571Z,5.95
2018-01-20T12:15:05.358Z,5.91
2018-01-20T12:16:05.423Z,5.97
2018-01-20T12:17:05.812Z,5.97
2018-01-20T12:18:05.521Z,5.95
2018-01-20T12:19:05.380Z,5.93
2018-01-20T12:20:05.347Z,5.93
2018-01-20T12:21:05.252Z,5.96
2018-01-20T12:22:05.258Z,5.96
2018-01-20T12:23:05.406Z,5.95
2018-01-20T12:24:05.385Z,5.95
2018-01-20T12:25:05.326Z,5.98
2018-01-20T12:26:05.396Z,6.02
2018-01-20T12:27:05.293Z,5.97
2018-01-20T12:28:05.297Z,5.96
2018-01-20T12:29:05.319Z,5.92
2018-01-20T12:30:05.210Z,5.94
2018-01-20T12:31:05.267Z,5.94
2018-01-20T12:32:05.325Z,5.92
2018-01-20T12:33:05.347Z,5.93
2018-01-20T12:34:05.472Z,5.94
2018-01-20T12:35:06.709Z,5.93